Time;durP1;ratioP1;P1;durP2;ratioP2;P2;SDS_P1;SDS_P2;PMS_P1;PMS_P2;Temp;Humidity;BMP_temperature;BMP_pressure;BME280_temperature;BME280_humidity;BME280_pressure;Samples;Min_cycle;Max_cycle;Signal;HPM_P1;HPM_P2
2022/08/17 00:01:25;;;;;;;10.55;9.43;;;19.00;99.90;;;-144.05;64.31;125687.94;4965207;28;20031;-87
2022/08/17 00:03:52;;;;;;;11.50;9.90;;;18.90;99.90;;;-144.05;64.60;125687.94;4983255;28;20054;-88
2022/08/17 00:06:28;;;;;;;15.68;10.52;;;18.90;99.90;;;-144.05;64.67;125687.94;4986948;28;20098;-85
2022/08/17 00:09:04;;;;;;;14.35;10.38;;;18.90;99.90;;;-144.05;64.85;125687.94;4992928;28;20030;-84
2022/08/17 00:11:41;;;;;;;12.95;10.13;;;18.90;99.90;;;-144.05;64.96;125687.94;4976432;28;20064;-87
2022/08/17 00:14:14;;;;;;;13.07;9.80;;;18.90;99.90;;;-144.05;65.12;125687.94;4953386;29;20039;-86
2022/08/17 00:16:52;;;;;;;12.80;9.93;;;18.90;99.90;;;-144.05;64.93;125687.94;4946641;29;20106;-88
2022/08/17 00:19:24;;;;;;;15.10;11.20;;;18.90;99.90;;;-144.05;64.90;125687.94;4945444;29;20057;-89
2022/08/17 00:21:56;;;;;;;13.95;9.73;;;19.10;99.90;;;-144.05;64.67;125687.94;4945824;29;20420;-87
2022/08/17 00:24:22;;;;;;;12.75;9.48;;;19.10;99.90;;;-144.05;64.51;125687.94;4946015;29;20496;-89
2022/08/17 00:26:48;;;;;;;11.00;9.13;;;19.10;99.90;;;-144.05;64.53;125687.94;4946178;29;20049;-88
2022/08/17 00:29:14;;;;;;;11.65;9.85;;;19.20;99.90;;;-144.05;64.29;125687.94;4963605;29;20055;-88
2022/08/17 00:31:39;;;;;;;11.90;9.40;;;19.20;99.90;;;-144.05;64.19;125687.94;4945868;29;20038;-88
2022/08/17 00:34:07;;;;;;;11.90;9.40;;;19.20;99.90;;;-144.05;64.01;125687.94;4946519;29;20042;-87
2022/08/17 00:36:33;;;;;;;15.63;10.70;;;19.30;99.90;;;-144.05;63.95;125687.94;4963498;29;20492;-88
2022/08/17 00:38:59;;;;;;;12.32;8.88;;;19.30;99.90;;;-144.05;63.65;125687.94;4945710;29;20037;-87
2022/08/17 00:41:28;;;;;;;11.35;8.43;;;19.30;99.90;;;-144.05;63.74;125687.94;4963259;29;20111;-87
2022/08/17 00:44:04;;;;;;;14.10;9.50;;;19.30;99.90;;;-144.05;63.64;125687.94;4945915;29;20039;-88
2022/08/17 00:46:40;;;;;;;10.80;9.52;;;19.30;99.90;;;-144.05;63.64;125687.94;4945638;29;20453;-88
2022/08/17 00:49:10;;;;;;;12.98;9.70;;;19.30;99.90;;;-144.05;63.30;125687.94;4945594;29;20024;-89
2022/08/17 00:51:59;;;;;;;11.98;8.80;;;19.40;99.90;;;-144.05;63.36;125687.94;4963307;29;20047;-89
2022/08/17 00:54:35;;;;;;;12.45;8.80;;;19.30;99.90;;;-144.05;63.32;125687.94;4945246;29;20035;-88
2022/08/17 00:57:16;;;;;;;11.40;9.55;;;19.30;99.90;;;-144.05;63.40;125687.94;4960518;29;20078;-88
2022/08/17 00:59:53;;;;;;;12.05;9.57;;;19.40;99.90;;;-144.05;63.18;125687.94;4945041;29;20031;-88
2022/08/17 01:02:19;;;;;;;13.57;9.85;;;19.40;99.90;;;-144.05;63.03;125687.94;4962402;29;20118;-89
2022/08/17 01:04:51;;;;;;;13.10;9.55;;;19.40;99.90;;;-144.05;63.18;125687.94;4951931;29;20428;-88
2022/08/17 01:07:23;;;;;;;14.30;9.77;;;19.40;99.90;;;-144.05;63.25;125687.94;4973816;29;20023;-87
2022/08/17 01:09:50;;;;;;;12.00;9.68;;;19.30;99.90;;;-144.05;63.33;125687.94;4954844;29;20035;-85
2022/08/17 01:12:17;;;;;;;12.18;9.15;;;19.20;99.90;;;-144.05;63.42;125687.94;4950588;29;20027;-86
2022/08/17 01:14:43;;;;;;;11.85;8.82;;;19.10;99.90;;;-144.05;63.95;125687.94;4970629;28;20031;-87
2022/08/17 01:17:55;;;;;;;11.02;8.48;;;19.00;99.90;;;-144.05;64.43;125687.94;4964864;28;20036;-87
2022/08/17 01:20:21;;;;;;;10.23;8.98;;;19.00;99.90;;;-144.05;64.60;125687.94;4875255;29;20487;-87
2022/08/17 01:22:47;;;;;;;14.45;10.20;;;18.80;99.90;;;-144.05;64.45;125687.94;4978007;28;20045;-87
2022/08/17 01:25:14;;;;;;;14.68;10.00;;;18.80;99.90;;;-144.05;64.76;125687.94;4964553;28;20069;-87
2022/08/17 01:27:42;;;;;;;13.88;9.55;;;18.90;99.90;;;-144.05;64.59;125687.94;4964120;28;20117;-85
2022/08/17 01:30:11;;;;;;;11.23;9.38;;;18.80;99.90;;;-144.05;64.76;125687.94;4963835;28;20031;-86
2022/08/17 01:32:38;;;;;;;13.00;10.30;;;18.80;99.90;;;-144.05;64.89;125687.94;4964357;28;20031;-88
2022/08/17 01:35:07;;;;;;;14.15;9.32;;;18.80;99.90;;;-144.05;65.14;125687.94;4965090;28;20026;-87
2022/08/17 01:37:41;;;;;;;9.80;8.80;;;18.70;99.90;;;-144.05;65.22;125687.94;4982504;28;20455;-87
2022/08/17 01:40:31;;;;;;;17.90;10.65;;;18.60;99.90;;;-144.05;65.87;125687.94;4982152;28;20082;-86
2022/08/17 01:43:30;;;;;;;14.13;9.73;;;18.60;99.90;;;-144.05;65.85;125687.94;4964741;28;20044;-87
2022/08/17 01:45:58;;;;;;;14.45;9.93;;;18.60;99.90;;;-144.05;66.08;125687.94;4965355;28;20105;-86
2022/08/17 01:48:34;;;;;;;12.20;10.10;;;18.50;99.90;;;-144.05;66.42;125687.94;4965413;28;20396;-87
2022/08/17 01:51:01;;;;;;;13.73;10.45;;;18.40;99.90;;;-144.05;66.79;125687.94;4981729;28;20030;-88
2022/08/17 01:53:38;;;;;;;14.57;10.02;;;18.40;99.90;;;-144.05;67.05;125687.94;4964643;28;20062;-87
2022/08/17 01:56:21;;;;;;;13.77;11.13;;;18.20;99.90;;;-144.05;67.37;125687.94;4981902;28;20046;-87
2022/08/17 01:58:47;;;;;;;12.15;9.52;;;18.20;99.90;;;-144.05;67.42;125687.94;4982012;28;20090;-87
2022/08/17 02:01:23;;;;;;;12.75;9.43;;;18.10;99.90;;;-144.05;67.88;125687.94;4981047;28;20093;-89
2022/08/17 02:03:49;;;;;;;12.35;10.77;;;18.00;99.90;;;-144.05;68.26;125687.94;4982028;28;20113;-87
2022/08/17 02:06:15;;;;;;;12.77;10.43;;;18.00;99.90;;;-144.05;68.34;125687.94;4977891;28;20019;-85
2022/08/17 02:08:41;;;;;;;11.10;9.35;;;17.90;99.90;;;-144.05;68.66;125687.94;4982947;28;20050;-84
2022/08/17 02:11:17;;;;;;;14.63;10.60;;;17.80;99.90;;;-144.05;69.21;125687.94;4985403;28;20039;-87
2022/08/17 02:13:48;;;;;;;11.68;9.93;;;17.80;99.90;;;-144.05;69.13;125687.94;4963630;28;20026;-88
2022/08/17 02:16:15;;;;;;;13.27;10.32;;;17.80;99.90;;;-144.05;69.56;125687.94;4990716;28;20527;-84
2022/08/17 02:18:41;;;;;;;12.82;11.25;;;17.70;99.90;;;-144.05;69.54;125687.94;4970757;28;20031;-86
2022/08/17 02:21:08;;;;;;;12.43;10.60;;;17.70;99.90;;;-144.05;69.72;125687.94;4980422;28;20038;-86
2022/08/17 02:23:42;;;;;;;12.38;11.07;;;17.70;99.90;;;-144.05;69.86;125687.94;4964505;28;20042;-86
2022/08/17 02:26:10;;;;;;;18.17;12.25;;;17.70;99.90;;;-144.05;70.07;125687.94;4963249;28;20035;-86
2022/08/17 02:28:36;;;;;;;15.25;12.50;;;17.80;99.90;;;-144.05;70.02;125687.94;4963027;28;20085;-87
2022/08/17 02:31:11;;;;;;;14.55;11.38;;;17.80;99.90;;;-144.05;69.95;125687.94;4962819;28;20034;-87
2022/08/17 02:33:39;;;;;;;16.95;11.65;;;17.80;99.90;;;-144.05;69.85;125687.94;4961311;28;20030;-88
2022/08/17 02:36:09;;;;;;;13.85;12.20;;;17.80;99.90;;;-144.05;70.09;125687.94;4962150;28;20030;-87
2022/08/17 02:38:37;;;;;;;13.02;10.55;;;17.90;99.90;;;-144.05;69.70;125687.94;4962031;28;20495;-87
2022/08/17 02:41:03;;;;;;;14.15;9.75;;;17.80;99.90;;;-144.05;69.84;125687.94;4979929;28;20034;-87
2022/08/17 02:43:30;;;;;;;15.85;11.20;;;17.70;99.90;;;-144.05;69.85;125687.94;4980853;28;20031;-88
2022/08/17 02:45:56;;;;;;;11.40;10.20;;;17.60;99.90;;;-144.05;70.36;125687.94;4961921;28;20031;-86
2022/08/17 02:48:23;;;;;;;14.15;10.88;;;17.60;99.90;;;-144.05;70.56;125687.94;4963045;28;20035;-88
2022/08/17 02:50:49;;;;;;;15.23;10.75;;;17.50;99.90;;;-144.05;70.66;125687.94;4981801;28;20105;-88
2022/08/17 02:53:15;;;;;;;15.18;10.95;;;17.50;99.90;;;-144.05;71.16;125687.94;4962474;28;20073;-87
2022/08/17 02:55:43;;;;;;;15.55;11.13;;;17.50;99.90;;;-144.05;71.08;125687.94;4962553;28;20617;-87
2022/08/17 02:58:10;;;;;;;11.40;10.20;;;17.40;99.90;;;-144.05;71.29;125687.94;4980449;28;20030;-89
2022/08/17 03:00:46;;;;;;;15.73;10.77;;;17.40;99.90;;;-144.05;71.45;125687.94;4962777;28;20023;-88
2022/08/17 03:03:17;;;;;;;14.18;11.43;;;17.40;99.90;;;-144.05;71.79;125687.94;4978942;28;20026;-87
2022/08/17 03:05:48;;;;;;;13.68;11.13;;;17.40;99.90;;;-144.05;71.67;125687.94;4979621;28;20481;-87
2022/08/17 03:08:15;;;;;;;13.82;10.73;;;17.30;99.90;;;-144.05;71.80;125687.94;4962408;28;20035;-88
2022/08/17 03:10:43;;;;;;;11.27;10.10;;;17.40;99.90;;;-144.05;71.78;125687.94;4979512;28;20050;-87
2022/08/17 03:13:13;;;;;;;14.30;10.43;;;17.40;99.90;;;-144.05;71.58;125687.94;4959323;29;20035;-88
2022/08/17 03:15:43;;;;;;;12.43;11.13;;;17.30;99.90;;;-144.05;71.54;125687.94;4943312;29;20050;-88
2022/08/17 03:18:14;;;;;;;12.07;10.18;;;17.40;99.90;;;-144.05;71.30;125687.94;4943612;29;20401;-87
2022/08/17 03:20:40;;;;;;;11.75;10.18;;;17.40;99.90;;;-144.05;71.15;125687.94;4942913;29;20370;-87
2022/08/17 03:23:08;;;;;;;13.65;9.80;;;17.50;99.90;;;-144.05;71.18;125687.94;4940596;29;20031;-88
2022/08/17 03:25:41;;;;;;;11.93;9.73;;;17.40;99.90;;;-144.05;71.30;125687.94;4940011;29;20042;-87
2022/08/17 03:28:10;;;;;;;11.10;9.90;;;17.40;99.90;;;-144.05;71.17;125687.94;4957977;29;20031;-86
2022/08/17 03:30:37;;;;;;;12.52;9.73;;;17.40;99.90;;;-144.05;71.34;125687.94;4959894;29;20027;-88
2022/08/17 03:33:09;;;;;;;12.50;9.57;;;17.30;99.90;;;-144.05;71.45;125687.94;4942078;29;20027;-87
2022/08/17 03:35:39;;;;;;;12.35;9.93;;;17.30;99.90;;;-144.05;71.52;125687.94;4958680;28;20027;-88
2022/08/17 03:38:11;;;;;;;11.90;10.55;;;17.40;99.90;;;-144.05;71.38;125687.94;4959921;29;20024;-89
2022/08/17 03:40:38;;;;;;;12.85;10.20;;;17.40;99.90;;;-144.05;71.38;125687.94;4942378;29;20035;-87
2022/08/17 03:43:09;;;;;;;11.95;10.40;;;17.50;99.90;;;-144.05;71.21;125687.94;4960833;29;20027;-86
2022/08/17 03:57:06;;;;;;;11.00;9.35;;;17.40;99.90;;;-144.05;71.42;125687.94;4959286;29;20065;-87
2022/08/17 03:59:34;;;;;;;11.70;9.45;;;17.40;99.90;;;-144.05;71.44;125687.94;4940931;29;20055;-87
2022/08/17 04:02:10;;;;;;;11.20;9.10;;;17.40;99.90;;;-144.05;71.55;125687.94;4943677;29;20109;-89
2022/08/17 04:04:37;;;;;;;;;;;17.40;99.90;;;-144.05;71.28;125687.94;4961539;29;20027;-88
2022/08/17 04:07:05;;;;;;;13.85;10.32;;;17.50;99.90;;;-144.05;70.93;125687.94;4960311;29;20358;-86
2022/08/17 04:09:31;;;;;;;11.57;9.68;;;17.50;99.90;;;-144.05;70.76;125687.94;4944319;29;20086;-86
2022/08/17 04:11:57;;;;;;;10.88;9.45;;;17.60;99.90;;;-144.05;70.59;125687.94;4963157;29;20091;-86
2022/08/17 04:14:23;;;;;;;12.43;9.77;;;17.60;99.90;;;-144.05;70.68;125687.94;4960005;28;20037;-87
2022/08/17 04:16:49;;;;;;;11.95;9.98;;;17.60;99.90;;;-144.05;70.41;125687.94;4981862;28;20086;-88
2022/08/17 04:19:15;;;;;;;14.80;9.32;;;17.60;99.90;;;-144.05;70.45;125687.94;4965361;28;20031;-84
2022/08/17 04:21:41;;;;;;;12.98;9.32;;;17.60;99.90;;;-144.05;70.61;125687.94;4969354;28;20062;-86
2022/08/17 04:24:07;;;;;;;9.82;8.30;;;17.50;99.90;;;-144.05;70.81;125687.94;4979512;28;20034;-85
2022/08/17 04:26:33;;;;;;;11.70;9.02;;;17.50;99.90;;;-144.05;70.80;125687.94;4974270;28;20492;-86
2022/08/17 04:28:59;;;;;;;10.10;9.10;;;17.40;99.90;;;-144.05;71.06;125687.94;4974188;28;20065;-86
2022/08/17 04:31:26;;;;;;;13.82;9.70;;;17.40;99.90;;;-144.05;71.00;125687.94;4958176;28;20066;-86
2022/08/17 04:33:53;;;;;;;12.10;9.30;;;17.40;99.90;;;-144.05;71.11;125687.94;4958365;28;20027;-87
2022/08/17 04:36:19;;;;;;;15.82;9.35;;;17.30;99.90;;;-144.05;71.21;125687.94;4960655;28;20069;-87
2022/08/17 04:38:46;;;;;;;14.07;10.18;;;17.30;99.90;;;-144.05;71.20;125687.94;4976818;28;20058;-86
2022/08/17 04:44:00;;;;;;;15.98;9.60;;;17.40;99.90;;;-144.05;70.91;125687.94;4983414;28;20106;-85
2022/08/17 04:46:37;;;;;;;22.20;10.13;;;17.50;99.90;;;-144.05;70.81;125687.94;4966614;28;20031;-85
2022/08/17 04:49:09;;;;;;;22.58;9.82;;;17.50;99.90;;;-144.05;70.76;125687.94;4980606;28;20034;-84
2022/08/17 04:51:43;;;;;;;17.58;9.73;;;17.50;99.90;;;-144.05;70.59;125687.94;4957923;28;20512;-85
2022/08/17 04:54:20;;;;;;;15.48;9.20;;;17.50;99.90;;;-144.05;70.53;125687.94;4957287;28;20496;-85
2022/08/17 04:56:47;;;;;;;18.95;9.60;;;17.60;99.90;;;-144.05;70.19;125687.94;4959179;28;20038;-85
2022/08/17 04:59:20;;;;;;;13.70;9.40;;;17.60;99.90;;;-144.05;70.07;125687.94;4962114;28;20043;-85
2022/08/17 05:01:50;;;;;;;13.02;9.60;;;17.70;99.90;;;-144.05;69.21;125687.94;4962724;28;20034;-86
2022/08/17 05:04:24;;;;;;;14.35;8.57;;;17.90;99.90;;;-144.05;68.76;125687.94;4961922;28;20030;-86
2022/08/17 05:06:53;;;;;;;10.38;8.85;;;18.00;99.90;;;-144.05;68.29;125687.94;4980833;28;20392;-84
2022/08/17 05:09:20;;;;;;;14.00;8.13;;;18.10;99.90;;;-144.05;67.66;125687.94;4963290;28;20093;-84
2022/08/17 05:11:46;;;;;;;18.50;8.88;;;18.20;99.90;;;-144.05;67.17;125687.94;4963430;28;20027;-84
2022/08/17 05:14:14;;;;;;;12.23;8.18;;;18.40;99.90;;;-144.05;66.83;125687.94;4961728;28;20038;-87
2022/08/17 05:16:41;;;;;;;17.63;8.75;;;18.50;99.90;;;-144.05;66.19;125687.94;4961497;28;20436;-86
2022/08/17 05:19:09;;;;;;;13.38;8.27;;;18.60;99.90;;;-144.05;65.69;125687.94;4977688;28;20031;-87
2022/08/17 05:21:36;;;;;;;12.45;8.48;;;18.70;99.90;;;-144.05;65.82;125687.94;4961924;28;20034;-85
2022/08/17 05:24:03;;;;;;;12.20;7.97;;;18.80;99.90;;;-144.05;65.60;125687.94;4961919;28;20408;-87
2022/08/17 05:26:29;;;;;;;13.95;7.93;;;18.90;99.90;;;-144.05;65.40;125687.94;4980355;28;20031;-87
2022/08/17 05:28:58;;;;;;;10.48;7.88;;;18.90;99.90;;;-144.05;64.79;125687.94;4964313;28;20027;-88
2022/08/17 05:31:25;;;;;;;12.18;8.23;;;19.00;99.90;;;-144.05;64.52;125687.94;4965762;28;20098;-88
2022/08/17 05:33:52;;;;;;;13.60;7.95;;;19.10;99.90;;;-144.05;64.29;125687.94;4963614;28;20040;-86
2022/08/17 05:36:18;;;;;;;12.02;7.60;;;19.10;99.90;;;-144.05;64.12;125687.94;4961912;28;20030;-85
2022/08/17 05:38:43;;;;;;;10.63;7.13;;;19.20;99.90;;;-144.05;64.12;125687.94;4962026;28;20030;-85
2022/08/17 05:41:10;;;;;;;14.40;8.18;;;19.20;99.90;;;-144.05;64.33;125687.94;4961392;28;20037;-85
2022/08/17 05:43:41;;;;;;;11.85;8.07;;;19.20;99.90;;;-144.05;64.58;125687.94;4961356;28;20081;-85
2022/08/17 05:46:19;;;;;;;18.73;8.27;;;19.30;99.90;;;-144.05;64.60;125687.94;4961586;28;20031;-84
2022/08/17 05:49:00;;;;;;;13.30;8.55;;;19.30;99.90;;;-144.05;64.37;125687.94;4976848;28;20034;-87
2022/08/17 05:52:16;;;;;;;17.02;7.80;;;19.40;99.90;;;-144.05;63.88;125687.94;4960918;28;20039;-87
2022/08/17 05:55:27;;;;;;;17.25;8.25;;;19.60;99.90;;;-144.05;63.50;125687.94;4940070;28;20381;-86
2022/08/17 05:58:09;;;;;;;16.92;8.00;;;19.70;99.90;;;-144.05;62.57;125687.94;4961058;28;20023;-87
2022/08/17 06:01:46;;;;;;;18.65;8.15;;;19.90;99.90;;;-144.05;62.33;125687.94;4978577;28;20023;-88
2022/08/17 06:05:45;;;;;;;10.52;7.03;;;20.00;99.90;;;-144.05;61.69;125687.94;4932263;28;20039;-85
2022/08/17 06:08:38;;;;;;;10.52;6.55;;;20.30;99.90;;;-144.05;58.89;125687.94;4944365;28;20097;-83
2022/08/17 06:11:37;;;;;;;8.95;5.63;;;20.70;99.90;;;-144.05;57.27;125687.94;4977739;28;20147;-84
2022/08/17 06:15:10;;;;;;;12.70;6.13;;;21.00;99.90;;;-144.05;55.45;125687.94;4965146;28;20027;-85
2022/08/17 06:17:37;;;;;;;11.23;6.63;;;21.30;99.90;;;-144.05;54.37;125687.94;4938180;29;20062;-82
2022/08/17 06:20:15;;;;;;;10.02;6.15;;;21.40;99.90;;;-144.05;54.50;125687.94;4941390;29;20097;-83
2022/08/17 06:22:52;;;;;;;10.50;6.15;;;21.60;99.90;;;-144.05;55.05;125687.94;4942220;29;20118;-86
2022/08/17 06:25:38;;;;;;;7.50;5.78;;;21.60;99.90;;;-144.05;54.82;125687.94;4942306;29;20032;-88
2022/08/17 06:28:28;;;;;;;9.80;5.88;;;21.60;99.90;;;-144.05;55.09;125687.94;4942640;29;20031;-85
2022/08/17 06:31:11;;;;;;;9.82;5.70;;;21.60;99.90;;;-144.05;55.06;125687.94;4954042;29;20031;-86
2022/08/17 06:33:40;;;;;;;12.18;6.07;;;21.70;99.90;;;-144.05;54.43;125687.94;4945284;29;20091;-85
2022/08/17 06:37:20;;;;;;;10.52;6.07;;;21.80;99.90;;;-144.05;54.24;125687.94;4958258;29;20089;-84
2022/08/17 06:40:09;;;;;;;14.13;6.45;;;21.90;99.90;;;-144.05;54.48;125687.94;4887385;29;20061;-84
2022/08/17 06:43:00;;;;;;;13.82;7.00;;;22.10;99.90;;;-144.05;54.37;125687.94;4940249;29;20038;-86
2022/08/17 06:45:48;;;;;;;11.30;5.60;;;22.20;99.90;;;-144.05;53.62;125687.94;4941051;29;20031;-86
2022/08/17 06:49:10;;;;;;;8.50;5.53;;;22.30;99.90;;;-144.05;50.31;125687.94;4957190;29;20366;-87
2022/08/17 06:52:18;;;;;;;11.00;5.00;;;22.50;99.90;;;-144.05;48.52;125687.94;4940029;29;20045;-86
2022/08/17 06:55:06;;;;;;;8.88;5.25;;;22.70;99.90;;;-144.05;48.48;125687.94;4956348;29;20528;-85
2022/08/17 06:57:45;;;;;;;8.18;5.00;;;22.90;99.90;;;-144.05;47.64;125687.94;4940435;29;20106;-87
2022/08/17 07:00:21;;;;;;;11.02;5.10;;;23.00;99.90;;;-144.05;47.28;125687.94;4939225;29;20027;-85
2022/08/17 07:03:14;;;;;;;8.70;5.10;;;23.20;99.90;;;-144.05;46.84;125687.94;4954610;29;20500;-85
2022/08/17 07:06:01;;;;;;;6.95;4.15;;;23.30;99.90;;;-144.05;47.07;125687.94;4939627;29;20031;-85
2022/08/17 07:08:36;;;;;;;8.70;4.57;;;23.40;99.90;;;-144.05;46.81;125687.94;4940143;29;20031;-87
2022/08/17 07:12:03;;;;;;;7.22;4.22;;;23.50;99.90;;;-144.05;45.61;125687.94;4939992;29;20127;-86
2022/08/17 07:14:41;;;;;;;15.40;5.00;;;23.60;99.90;;;-144.05;45.00;125687.94;4955899;29;20035;-86
2022/08/17 07:17:17;;;;;;;5.78;4.28;;;23.70;99.90;;;-144.05;45.03;125687.94;4939979;29;20027;-89
2022/08/17 07:19:48;;;;;;;7.70;4.20;;;23.70;99.90;;;-144.05;44.53;125687.94;4939343;29;20131;-86
2022/08/17 07:23:01;;;;;;;8.57;4.75;;;23.80;99.90;;;-144.05;44.32;125687.94;4939364;29;20039;-86
2022/08/17 07:25:29;;;;;;;6.20;3.95;;;23.80;99.90;;;-144.05;44.71;125687.94;4955175;29;20054;-87
2022/08/17 07:28:02;;;;;;;8.00;4.40;;;23.90;99.90;;;-144.05;43.51;125687.94;4957845;29;20512;-86
2022/08/17 07:30:52;;;;;;;5.05;3.88;;;24.00;99.90;;;-144.05;43.66;125687.94;4940476;29;20035;-88
2022/08/17 07:33:33;;;;;;;6.80;3.97;;;24.10;99.90;;;-144.05;43.08;125687.94;4940367;29;20113;-88
2022/08/17 07:36:00;;;;;;;7.75;4.20;;;24.20;99.90;;;-144.05;42.98;125687.94;4942374;29;20097;-86
2022/08/17 07:38:34;;;;;;;6.05;4.32;;;24.30;99.90;;;-144.05;42.86;125687.94;4958748;29;20031;-87
2022/08/17 07:41:10;;;;;;;7.00;4.28;;;24.40;99.90;;;-144.05;42.80;125687.94;4941332;29;20038;-87
2022/08/17 07:43:38;;;;;;;6.95;4.07;;;24.60;99.90;;;-144.05;42.65;125687.94;4957715;29;20074;-87
2022/08/17 07:49:29;;;;;;;8.65;4.22;;;24.80;99.90;;;-144.05;41.94;125687.94;4959849;29;20082;-87
2022/08/17 07:52:24;;;;;;;8.38;4.05;;;24.90;99.90;;;-144.05;41.47;125687.94;4941219;29;20441;-88
2022/08/17 07:54:50;;;;;;;5.50;4.05;;;25.00;99.90;;;-144.05;40.91;125687.94;4941435;29;20023;-87
2022/08/17 07:57:21;;;;;;;4.47;4.00;;;25.10;99.90;;;-144.05;40.93;125687.94;4941713;29;20128;-88
2022/08/17 07:59:59;;;;;;;9.63;4.03;;;25.30;99.90;;;-144.05;40.15;125687.94;4957955;29;20086;-86
2022/08/17 08:02:59;;;;;;;7.05;4.28;;;25.80;99.90;;;-144.05;37.63;125687.94;4958315;29;20038;-89
2022/08/17 08:05:29;;;;;;;7.25;4.00;;;26.90;99.90;;;-144.05;36.58;125687.94;4941044;29;20031;-85
2022/08/17 08:08:36;;;;;;;6.85;3.90;;;28.00;99.90;;;-144.05;36.42;125687.94;4958826;29;20039;-83
2022/08/17 08:11:14;;;;;;;11.43;4.53;;;28.70;99.90;;;-144.05;35.39;125687.94;4958589;29;20031;-84
2022/08/17 08:13:44;;;;;;;9.98;4.43;;;29.00;99.90;;;-144.05;36.30;125687.94;4941211;29;20512;-86
2022/08/17 08:16:30;;;;;;;8.25;3.95;;;28.80;99.90;;;-144.05;36.45;125687.94;4941416;29;20031;-87
2022/08/17 08:19:01;;;;;;;8.63;3.95;;;28.30;99.90;;;-144.05;36.78;125687.94;4942078;29;20042;-84
2022/08/17 08:22:01;;;;;;;7.72;4.00;;;27.90;99.90;;;-144.05;36.63;125687.94;4941855;29;20035;-88
2022/08/17 08:25:21;;;;;;;6.28;3.58;;;28.00;99.90;;;-144.05;35.71;125687.94;4941709;29;20051;-85
2022/08/17 08:28:06;;;;;;;8.00;3.75;;;28.50;99.90;;;-144.05;35.30;125687.94;4940524;29;20043;-83
2022/08/17 08:30:45;;;;;;;12.05;4.03;;;28.70;99.90;;;-144.05;35.16;125687.94;4959870;28;20035;-87
2022/08/17 08:33:20;;;;;;;3.83;3.28;;;28.50;99.90;;;-144.05;35.54;125687.94;4962464;29;20023;-87
2022/08/17 08:36:01;;;;;;;5.13;2.78;;;28.30;99.90;;;-144.05;35.71;125687.94;4945188;29;20381;-86
2022/08/17 08:38:49;;;;;;;7.57;3.58;;;28.10;99.90;;;-144.05;35.57;125687.94;4954533;29;20035;-86
2022/08/17 08:41:41;;;;;;;5.13;3.20;;;28.30;99.90;;;-144.05;34.20;125687.94;4947279;29;20042;-85
2022/08/17 08:44:34;;;;;;;4.93;3.17;;;28.90;98.20;;;-144.05;33.70;125687.94;4942745;29;20035;-84
2022/08/17 08:47:40;;;;;;;5.72;3.63;;;29.60;97.30;;;-144.05;32.88;125687.94;4943525;29;20062;-86
2022/08/17 08:50:51;;;;;;;3.92;2.65;;;30.20;95.80;;;-144.05;32.10;125687.94;4960077;29;20117;-86
2022/08/17 08:54:20;;;;;;;4.18;2.88;;;30.20;94.00;;;-144.05;33.18;125687.94;4943987;29;20031;-87
2022/08/17 08:57:00;;;;;;;5.07;3.15;;;29.70;94.10;;;-144.05;34.27;125687.94;4944679;29;20046;-84
2022/08/17 09:00:14;;;;;;;5.85;3.05;;;29.10;94.50;;;-144.05;33.91;125687.94;4961604;29;20024;-87
2022/08/17 09:03:08;;;;;;;5.30;3.15;;;28.90;94.20;;;-144.05;34.18;125687.94;4930352;29;20054;-88
2022/08/17 09:05:56;;;;;;;4.22;2.95;;;28.90;94.70;;;-144.05;34.12;125687.94;4943275;29;20038;-89
2022/08/17 09:09:02;;;;;;;9.35;3.80;;;29.10;95.40;;;-144.05;33.21;125687.94;4961543;29;20039;-86
2022/08/17 09:12:15;;;;;;;5.68;3.25;;;29.30;93.80;;;-144.05;32.65;125687.94;4960886;29;20051;-88
2022/08/17 09:15:00;;;;;;;6.25;3.33;;;29.60;93.00;;;-144.05;31.79;125687.94;4945382;29;20027;-87
2022/08/17 09:17:41;;;;;;;6.38;3.50;;;30.00;91.00;;;-144.05;31.91;125687.94;4961508;29;20027;-86
2022/08/17 09:20:34;;;;;;;3.55;2.65;;;30.30;90.70;;;-144.05;31.96;125687.94;4944397;29;20030;-87
2022/08/17 09:23:33;;;;;;;6.60;3.08;;;30.20;90.90;;;-144.05;32.07;125687.94;4943171;29;20035;-87
2022/08/17 09:26:19;;;;;;;4.75;2.65;;;29.90;90.50;;;-144.05;33.13;125687.94;4944256;29;20035;-88
2022/08/17 09:29:00;;;;;;;4.13;2.67;;;29.50;91.50;;;-144.05;33.18;125687.94;4944072;29;20038;-87
2022/08/17 09:31:55;;;;;;;3.47;2.97;;;29.10;91.10;;;-144.05;33.36;125687.94;4943910;29;20027;-87
2022/08/17 09:35:00;;;;;;;6.18;3.90;;;28.70;91.30;;;-144.05;34.65;125687.94;4968670;29;20062;-87
2022/08/17 09:38:01;;;;;;;7.78;3.40;;;28.30;92.00;;;-144.05;35.00;125687.94;4975098;29;20055;-88
2022/08/17 09:41:22;;;;;;;6.15;3.70;;;28.00;92.50;;;-144.05;35.57;125687.94;4974415;29;20034;-88
2022/08/17 09:44:50;;;;;;;6.97;3.63;;;27.70;93.90;;;-144.05;35.92;125687.94;4968438;28;20031;-86
2022/08/17 09:47:54;;;;;;;10.73;3.58;;;27.50;94.50;;;-144.05;35.99;125687.94;4962543;29;20090;-87
2022/08/17 09:50:58;;;;;;;8.15;3.50;;;27.30;94.70;;;-144.05;36.76;125687.94;4961148;29;20038;-86
2022/08/17 09:53:25;;;;;;;4.97;3.20;;;27.00;94.80;;;-144.05;36.62;125687.94;4943067;29;20505;-86
2022/08/17 09:56:29;;;;;;;6.88;3.40;;;27.00;95.20;;;-144.05;36.95;125687.94;4944961;29;20171;-88
2022/08/17 09:59:37;;;;;;;4.38;3.45;;;27.00;95.80;;;-144.05;36.75;125687.94;4936142;29;20035;-86
2022/08/17 10:02:55;;;;;;;5.72;3.78;;;27.00;95.40;;;-144.05;37.15;125687.94;4960819;29;20114;-87
2022/08/17 10:05:44;;;;;;;6.28;3.47;;;26.90;96.00;;;-144.05;37.94;125687.94;4957634;29;20085;-86
2022/08/17 10:08:35;;;;;;;4.80;3.85;;;26.90;98.30;;;-144.05;38.00;125687.94;4939529;29;20090;-84
2022/08/17 10:12:15;;;;;;;7.55;3.75;;;26.80;97.30;;;-144.05;38.62;125687.94;4956777;29;20034;-85
2022/08/17 10:15:22;;;;;;;5.75;3.78;;;26.70;99.50;;;-144.05;39.10;125687.94;4949989;29;20409;-83
2022/08/17 10:18:28;;;;;;;8.30;3.85;;;26.50;99.40;;;-144.05;39.40;125687.94;4939198;29;20039;-85
2022/08/17 10:27:53;;;;;;;6.03;4.25;;;26.20;99.90;;;-144.05;40.50;125687.94;4941419;29;20050;-84
2022/08/17 10:30:29;;;;;;;4.53;3.80;;;26.10;99.90;;;-144.05;40.79;125687.94;4940347;29;20165;-88
2022/08/17 10:33:05;;;;;;;5.85;4.18;;;26.00;99.90;;;-144.05;40.79;125687.94;5077649;23;20039;-85
2022/08/17 10:36:03;;;;;;;10.43;4.70;;;25.90;99.90;;;-144.05;41.39;125687.94;4944917;29;20031;-87
2022/08/17 10:39:03;;;;;;;8.38;3.90;;;25.80;99.90;;;-144.05;41.58;125687.94;4959718;29;20035;-85
2022/08/17 10:41:49;;;;;;;11.82;4.63;;;25.70;99.90;;;-144.05;40.93;125687.94;4974155;28;20011;-86
2022/08/17 10:44:55;;;;;;;7.70;5.13;;;25.60;99.90;;;-144.05;41.03;125687.94;4963759;28;20036;-85
2022/08/17 10:47:25;;;;;;;8.13;5.07;;;25.50;99.90;;;-144.05;41.14;125687.94;4942076;29;20031;-85
2022/08/17 10:49:56;;;;;;;7.28;5.03;;;25.50;99.90;;;-144.05;41.33;125687.94;4942024;29;20023;-87
2022/08/17 10:52:22;;;;;;;7.20;5.35;;;25.50;99.90;;;-144.05;41.31;125687.94;4942461;29;20035;-86
2022/08/17 10:55:05;;;;;;;7.53;4.93;;;25.50;99.90;;;-144.05;41.01;125687.94;4959066;28;20039;-85
2022/08/17 10:57:35;;;;;;;8.00;5.60;;;25.60;99.90;;;-144.05;41.35;125687.94;4958893;29;20070;-88
2022/08/17 11:00:11;;;;;;;8.73;5.28;;;25.60;99.90;;;-144.05;41.54;125687.94;4944016;29;20023;-85
2022/08/17 11:02:56;;;;;;;9.02;5.63;;;25.70;99.90;;;-144.05;41.89;125687.94;4958925;29;20082;-86
2022/08/17 11:05:40;;;;;;;8.65;6.20;;;25.60;99.90;;;-144.05;42.36;125687.94;4941798;29;20086;-86
2022/08/17 11:08:29;;;;;;;10.63;6.05;;;25.60;99.90;;;-144.05;42.47;125687.94;4941216;29;20059;-87
2022/08/17 11:11:35;;;;;;;13.63;5.80;;;25.50;99.90;;;-144.05;42.96;125687.94;4960208;29;20039;-88